Estación Meteorológica Peña el Pijo (Robertgarden) [ 09/25/17 15:16:14 CEST ]

Fecha Hora Presion(HPa) Temp (°C) Humedad % Rocio (°C) Viento ( m/s) Direccion Lluvia 1Hora(mm) Lluvia 24H(mm) LLuvia Total(mm)
2017-May-04 01:01:40 1007.200 9.3 71 4.3         1390.83
2017-May-04 02:01:45 1007.200 8.1 75 4.0         1390.83
2017-May-04 03:01:51 1006.500 7.2 78 3.6         1390.83
2017-May-04 04:04:16 1006.100 6.6 80 3.4         1390.83
2017-May-04 05:05:05 1005.700 6.5 81 3.5         1390.83
2017-May-04 06:01:41 1005.400 5.8 82 2.9         1390.83
2017-May-04 07:01:30 1004.700 5.1 83 2.4         1390.83
2017-May-04 08:01:45 1004.700 5.9 85 3.5         1390.83
2017-May-04 09:01:30 1004.500 11.3 84 8.8         1390.83
2017-May-04 10:01:44 1004.100 18.3 59 10.1         1390.83
2017-May-04 11:01:25 1004.100 23.9 38 9.1         1390.83
2017-May-04 12:01:41 1004.000 25.5 35 8.8         1390.83
2017-May-04 13:01:32 1003.600 27.2 32 9.0 1.5 ESE     1390.83
2017-May-04 14:01:16 1003.300 26.3 35 9.5         1390.83
2017-May-04 15:01:57 1003.300 27.4 32 9.2         1390.83
2017-May-04 16:01:57 1003.200 27.3 31 8.7 1.1 SE     1390.83
2017-May-04 17:02:22 1002.700 27.6 32 9.3         1390.83
2017-May-04 18:01:55 1002.900 26.3 34 9.1         1390.83
2017-May-04 19:01:54 1002.700 25.5 35 8.8         1390.83
2017-May-04 20:02:02 1002.800 22.2 42 8.6         1390.83
2017-May-04 21:01:40 1003.400 19.8 49 8.8         1390.83
2017-May-04 22:01:36 1004.100 17.8 56 8.8         1390.83
2017-May-04 23:01:48 1004.400 15.3 64 8.5         1390.83

Temperatura Máxima:27°    Temperatura Mínima:
Presión Máxima:1007.200 Hpa    Presión Mínima:1002.700 Hpa


Volver